Time;durP1;ratioP1;P1;durP2;ratioP2;P2;SDS_P1;SDS_P2;PMS_P1;PMS_P2;Temp;Humidity;BMP_temperature;BMP_pressure;BME280_temperature;BME280_humidity;BME280_pressure;Samples;Min_cycle;Max_cycle;Signal;HPM_P1;HPM_P2
2021/10/13 00:02:00;;;;;;;11.30;1.70;;;8.20;99.90;;;;;;4988187;28;20057;-87
2021/10/13 00:04:26;;;;;;;8.35;1.58;;;8.20;99.90;;;;;;4969767;28;20497;-81
2021/10/13 00:06:51;;;;;;;11.30;1.80;;;8.20;99.90;;;;;;4960910;28;20153;-85
2021/10/13 00:09:17;;;;;;;7.63;1.63;;;8.30;99.90;;;;;;4972884;28;20102;-76
2021/10/13 00:11:43;;;;;;;10.43;1.50;;;8.30;99.90;;;;;;4975680;28;20038;-79
2021/10/13 00:14:09;;;;;;;13.63;2.10;;;8.30;99.90;;;;;;4993526;28;20042;-84
2021/10/13 00:16:35;;;;;;;9.70;1.42;;;8.30;99.90;;;;;;4958730;28;20038;-79
2021/10/13 00:19:01;;;;;;;10.35;1.90;;;8.40;99.90;;;;;;4975753;28;20061;-86
2021/10/13 00:21:27;;;;;;;10.40;1.83;;;8.40;99.90;;;;;;4974728;28;20038;-81
2021/10/13 00:23:53;;;;;;;10.20;1.80;;;8.50;99.90;;;;;;4977539;28;20045;-79
2021/10/13 00:26:18;;;;;;;12.73;1.73;;;8.50;99.90;;;;;;4962751;28;20045;-80
2021/10/13 00:28:44;;;;;;;10.68;2.10;;;8.50;99.90;;;;;;5001759;28;20047;-80
2021/10/13 00:31:09;;;;;;;9.45;1.90;;;8.50;99.90;;;;;;4996732;28;20077;-76
2021/10/13 00:33:35;;;;;;;13.45;2.17;;;8.60;99.90;;;;;;4994690;28;20093;-86
2021/10/13 00:36:01;;;;;;;13.50;1.83;;;8.60;99.90;;;;;;4995683;28;20096;-80
2021/10/13 00:38:27;;;;;;;8.05;1.42;;;8.60;99.90;;;;;;4977702;28;20061;-82
2021/10/13 00:40:53;;;;;;;13.18;1.70;;;8.70;99.90;;;;;;4982963;28;20070;-79
2021/10/13 00:43:19;;;;;;;12.15;1.60;;;8.70;99.90;;;;;;4977142;28;20057;-84
2021/10/13 00:45:45;;;;;;;11.95;1.65;;;8.70;99.90;;;;;;4994768;28;20042;-80
2021/10/13 00:48:10;;;;;;;12.80;1.50;;;8.70;99.90;;;;;;5014423;28;20437;-77
2021/10/13 00:50:37;;;;;;;6.18;1.05;;;8.80;99.90;;;;;;4994434;28;20076;-79
2021/10/13 00:53:03;;;;;;;8.70;1.58;;;8.70;99.90;;;;;;5015945;28;20049;-83
2021/10/13 00:55:30;;;;;;;13.13;1.60;;;8.70;99.90;;;;;;4994366;28;20042;-86
2021/10/13 00:57:56;;;;;;;12.77;2.05;;;8.70;99.90;;;;;;4994362;28;20053;-80
2021/10/13 01:00:23;;;;;;;13.60;1.70;;;8.70;99.90;;;;;;4997540;28;20054;-83
2021/10/13 01:03:07;;;;;;;7.60;1.52;;;8.70;99.90;;;;;;4977764;28;20227;-80
2021/10/13 01:05:50;;;;;;;12.13;1.92;;;8.80;99.90;;;;;;4993087;28;20053;-87
2021/10/13 01:08:37;;;;;;;9.38;1.65;;;8.80;99.90;;;;;;4993962;28;20377;-81
2021/10/13 01:11:44;;;;;;;17.42;1.92;;;8.90;99.90;;;;;;4992983;28;20425;-81
2021/10/13 01:14:14;;;;;;;10.95;1.50;;;8.90;99.90;;;;;;4934544;29;20055;-82
2021/10/13 01:16:54;;;;;;;14.68;2.03;;;8.90;99.90;;;;;;4935503;28;20039;-79
2021/10/13 01:19:27;;;;;;;10.70;1.80;;;8.90;99.90;;;;;;4949682;29;20062;-82
2021/10/13 01:22:18;;;;;;;17.73;1.77;;;8.90;99.90;;;;;;4949706;28;20423;-78
2021/10/13 01:25:04;;;;;;;10.07;1.50;;;8.90;99.90;;;;;;4946519;28;20051;-82
2021/10/13 01:28:08;;;;;;;17.27;2.10;;;8.90;99.90;;;;;;4934086;29;20097;-83
2021/10/13 01:30:58;;;;;;;12.85;2.05;;;8.90;99.90;;;;;;4909156;29;20249;-84
2021/10/13 01:33:28;;;;;;;14.68;2.25;;;8.90;99.90;;;;;;4883077;29;20044;-79
2021/10/13 01:35:59;;;;;;;9.02;2.17;;;8.90;99.90;;;;;;4896544;29;20210;-82
2021/10/13 01:38:28;;;;;;;7.82;1.55;;;9.00;99.90;;;;;;4871891;29;20113;-83
2021/10/13 01:40:58;;;;;;;12.60;1.77;;;8.90;99.90;;;;;;4880893;29;20496;-83
2021/10/13 01:43:25;;;;;;;14.23;1.45;;;8.80;99.90;;;;;;4880145;29;20520;-82
2021/10/13 01:45:52;;;;;;;14.63;2.28;;;8.80;99.90;;;;;;4871904;29;20403;-77
2021/10/13 01:48:20;;;;;;;6.78;1.42;;;8.80;99.90;;;;;;4884452;29;20048;-81
2021/10/13 01:50:48;;;;;;;15.55;1.95;;;8.90;99.90;;;;;;4898228;29;20393;-84
2021/10/13 01:53:17;;;;;;;13.20;1.60;;;8.80;99.90;;;;;;4923924;29;20127;-81
2021/10/13 01:55:46;;;;;;;12.20;1.38;;;8.80;99.90;;;;;;4919412;29;20098;-78
2021/10/13 01:58:14;;;;;;;6.70;1.30;;;8.80;99.90;;;;;;4919976;29;20071;-82
2021/10/13 02:00:43;;;;;;;11.90;1.48;;;8.90;99.90;;;;;;4915452;29;20385;-84
2021/10/13 02:03:09;;;;;;;11.70;1.40;;;8.90;99.90;;;;;;4920273;29;20365;-84
2021/10/13 02:05:37;;;;;;;5.95;1.30;;;8.90;99.90;;;;;;4900147;29;20051;-86
2021/10/13 02:08:04;;;;;;;14.45;1.92;;;8.90;99.90;;;;;;4996130;28;20065;-82
2021/10/13 02:10:31;;;;;;;10.73;1.60;;;9.00;99.90;;;;;;4989771;28;20080;-83
2021/10/13 02:12:59;;;;;;;13.60;1.40;;;9.10;99.90;;;;;;4997362;28;20045;-81
2021/10/13 02:15:27;;;;;;;10.77;1.52;;;9.10;99.90;;;;;;4993936;28;20092;-87
2021/10/13 02:17:55;;;;;;;10.77;1.27;;;9.10;99.90;;;;;;4982232;28;20038;-82
2021/10/13 02:20:22;;;;;;;6.25;1.50;;;9.20;99.90;;;;;;4985682;28;20116;-82
2021/10/13 02:22:55;;;;;;;13.73;1.75;;;9.20;99.90;;;;;;4997283;28;20058;-83
2021/10/13 02:25:21;;;;;;;8.68;1.30;;;9.30;99.90;;;;;;4979122;28;20046;-83
2021/10/13 02:28:13;;;;;;;12.27;1.77;;;9.20;99.90;;;;;;4980124;28;20382;-81
2021/10/13 02:30:39;;;;;;;8.75;1.45;;;9.40;99.90;;;;;;4991308;28;20045;-77
2021/10/13 02:33:05;;;;;;;10.50;1.40;;;9.20;99.90;;;;;;4993413;28;20042;-81
2021/10/13 02:35:31;;;;;;;11.40;1.50;;;9.20;99.90;;;;;;4972880;28;20052;-79
2021/10/13 02:37:57;;;;;;;11.48;1.23;;;9.20;99.90;;;;;;4986994;28;20129;-77
2021/10/13 02:40:23;;;;;;;20.95;1.55;;;9.10;99.90;;;;;;4991517;28;20041;-78
2021/10/13 02:42:49;;;;;;;8.50;1.50;;;9.60;99.90;;;;;;4992434;28;20122;-86
2021/10/13 02:45:15;;;;;;;15.43;2.00;;;9.10;99.90;;;;;;4994786;28;20481;-78
2021/10/13 02:47:55;;;;;;;4.70;1.30;;;9.20;99.90;;;;;;5008568;28;20839;-84
2021/10/13 02:50:50;;;;;;;14.60;1.90;;;9.20;99.90;;;;;;4992513;28;20542;-83
2021/10/13 02:53:38;;;;;;;8.75;1.52;;;9.30;99.90;;;;;;4915585;29;20056;-81
2021/10/13 02:56:15;;;;;;;12.77;1.83;;;9.40;99.90;;;;;;4936161;29;20049;-86
2021/10/13 02:59:01;;;;;;;14.45;1.80;;;9.50;99.90;;;;;;4916344;29;20138;-78
2021/10/13 03:01:34;;;;;;;19.02;1.70;;;9.50;99.90;;;;;;4939965;29;20066;-84
2021/10/13 03:04:03;;;;;;;6.72;1.38;;;9.80;99.90;;;;;;4949356;29;20325;-81
2021/10/13 03:06:38;;;;;;;13.00;2.10;;;9.90;99.90;;;;;;4948148;29;20047;-84
2021/10/13 03:09:07;;;;;;;15.25;3.45;;;10.10;99.90;;;;;;4946094;29;20131;-83
2021/10/13 03:11:33;;;;;;;11.48;2.88;;;10.10;99.90;;;;;;4931722;29;20043;-80
2021/10/13 03:14:02;;;;;;;14.60;3.63;;;10.20;99.90;;;;;;4930206;29;20039;-84
2021/10/13 03:16:28;;;;;;;13.77;3.63;;;10.20;99.90;;;;;;4934824;29;20043;-84
2021/10/13 03:18:56;;;;;;;13.60;3.22;;;10.20;99.90;;;;;;4929786;29;20031;-85
2021/10/13 03:21:27;;;;;;;10.27;2.90;;;10.20;99.90;;;;;;4917163;29;20043;-85
2021/10/13 03:23:53;;;;;;;15.77;2.75;;;10.30;99.90;;;;;;4915542;29;21192;-78
2021/10/13 03:26:19;;;;;;;13.05;1.70;;;10.10;99.90;;;;;;4933517;29;20043;-82
2021/10/13 03:28:45;;;;;;;13.88;2.05;;;10.10;99.90;;;;;;4935886;29;20090;-80
2021/10/13 03:31:11;;;;;;;12.63;1.40;;;10.00;99.90;;;;;;4972379;28;20548;-83
2021/10/13 03:33:37;;;;;;;11.57;1.75;;;10.00;99.90;;;;;;4976365;28;20105;-80
2021/10/13 03:36:05;;;;;;;7.90;1.80;;;9.90;99.90;;;;;;4991603;28;20038;-80
2021/10/13 03:38:31;;;;;;;5.45;1.42;;;9.90;99.90;;;;;;4991806;28;20045;-83
2021/10/13 03:40:57;;;;;;;9.60;1.75;;;10.00;99.90;;;;;;4974235;28;20145;-81
2021/10/13 03:43:23;;;;;;;10.07;1.70;;;10.00;99.90;;;;;;4976501;28;20399;-82
2021/10/13 03:45:49;;;;;;;10.48;2.03;;;10.00;99.90;;;;;;4987629;28;20133;-81
2021/10/13 03:48:15;;;;;;;4.22;1.33;;;10.00;99.90;;;;;;4981028;28;20141;-81
2021/10/13 03:50:41;;;;;;;14.48;1.88;;;10.00;99.90;;;;;;4991597;28;20026;-79
2021/10/13 03:53:06;;;;;;;8.75;1.40;;;9.90;99.90;;;;;;5012413;28;20042;-79
2021/10/13 03:55:32;;;;;;;10.20;1.75;;;9.90;99.90;;;;;;4995964;28;20034;-86
2021/10/13 03:57:58;;;;;;;6.05;1.13;;;9.80;99.90;;;;;;4992086;28;20042;-77
2021/10/13 04:00:23;;;;;;;6.97;1.35;;;9.90;99.90;;;;;;4992813;28;20065;-78
2021/10/13 04:02:49;;;;;;;9.18;1.40;;;9.80;99.90;;;;;;4996455;28;20077;-82
2021/10/13 04:05:15;;;;;;;7.07;1.13;;;9.80;99.90;;;;;;4993972;28;20048;-80
2021/10/13 04:07:42;;;;;;;7.70;1.15;;;9.80;99.90;;;;;;4993079;28;20037;-79
2021/10/13 04:10:10;;;;;;;12.32;1.65;;;9.90;99.90;;;;;;4978241;28;20125;-81
2021/10/13 04:12:36;;;;;;;10.45;1.95;;;9.80;99.90;;;;;;4995403;28;20149;-84
2021/10/13 04:15:03;;;;;;;8.73;1.65;;;9.80;99.90;;;;;;4979134;28;20597;-82
2021/10/13 04:17:29;;;;;;;7.72;1.40;;;9.90;99.90;;;;;;4994537;28;20075;-82
2021/10/13 04:19:54;;;;;;;9.70;1.63;;;10.00;99.90;;;;;;4993217;28;20438;-76
2021/10/13 04:22:20;;;;;;;8.90;1.73;;;10.10;99.90;;;;;;4993996;28;20041;-78
2021/10/13 04:24:46;;;;;;;7.47;1.75;;;10.10;99.90;;;;;;4974406;28;20078;-80
2021/10/13 04:27:12;;;;;;;6.45;1.15;;;10.20;99.90;;;;;;5007933;28;20045;-76
2021/10/13 04:29:37;;;;;;;10.15;1.23;;;10.30;99.90;;;;;;4977259;28;20042;-79
2021/10/13 04:32:03;;;;;;;8.00;1.73;;;10.30;99.90;;;;;;4980473;28;20037;-81
2021/10/13 04:34:29;;;;;;;11.32;1.88;;;10.30;99.90;;;;;;4992199;28;20469;-83
2021/10/13 04:36:54;;;;;;;8.48;1.50;;;10.10;99.90;;;;;;4988423;28;20053;-78
2021/10/13 04:39:20;;;;;;;11.45;1.33;;;10.10;99.90;;;;;;4988582;28;20046;-77
2021/10/13 04:41:46;;;;;;;11.18;1.42;;;10.00;99.90;;;;;;4969069;28;20049;-81
2021/10/13 04:44:11;;;;;;;11.48;1.52;;;9.90;99.90;;;;;;4986080;28;20092;-75
2021/10/13 04:46:37;;;;;;;7.35;1.48;;;9.80;99.90;;;;;;5008197;28;20034;-77
2021/10/13 04:49:03;;;;;;;6.35;1.38;;;9.70;99.90;;;;;;4971471;28;20050;-81
2021/10/13 04:51:28;;;;;;;7.60;1.40;;;9.50;99.90;;;;;;4975975;28;20077;-76
2021/10/13 04:53:54;;;;;;;11.15;1.63;;;9.40;99.90;;;;;;4989805;28;20049;-81
2021/10/13 04:56:19;;;;;;;10.75;1.92;;;9.30;99.90;;;;;;4994340;28;20137;-81
2021/10/13 04:58:45;;;;;;;10.77;1.67;;;9.20;99.90;;;;;;4996719;28;20136;-79
2021/10/13 05:01:11;;;;;;;9.48;1.48;;;9.10;99.90;;;;;;4979042;28;20077;-79
2021/10/13 05:03:37;;;;;;;5.13;1.55;;;9.10;99.90;;;;;;5012112;28;20038;-81
2021/10/13 05:06:03;;;;;;;6.72;1.40;;;9.00;99.90;;;;;;4977688;28;20346;-80
2021/10/13 05:08:29;;;;;;;8.15;1.55;;;9.00;99.90;;;;;;4995612;28;20434;-80
2021/10/13 05:10:54;;;;;;;5.75;1.30;;;9.00;99.90;;;;;;4989536;28;20044;-81
2021/10/13 05:13:20;;;;;;;3.88;1.25;;;8.90;99.90;;;;;;4994886;28;20120;-80
2021/10/13 05:15:46;;;;;;;12.57;1.42;;;8.90;99.90;;;;;;4989987;28;20128;-83
2021/10/13 05:18:11;;;;;;;9.27;1.80;;;8.90;99.90;;;;;;4990497;28;20073;-77
2021/10/13 05:20:40;;;;;;;7.65;1.50;;;8.90;99.90;;;;;;4977021;28;20046;-77
2021/10/13 05:23:06;;;;;;;5.43;1.50;;;8.90;99.90;;;;;;4976623;28;20097;-77
2021/10/13 05:25:32;;;;;;;11.45;1.65;;;9.30;99.90;;;;;;4977427;28;20050;-76
2021/10/13 05:27:58;;;;;;;8.48;1.50;;;8.80;99.90;;;;;;4992323;28;20048;-80
2021/10/13 05:30:24;;;;;;;9.30;1.30;;;8.80;99.90;;;;;;4994733;28;20049;-75
2021/10/13 05:32:50;;;;;;;4.90;1.17;;;8.80;99.90;;;;;;4978046;28;20038;-78
2021/10/13 05:35:15;;;;;;;10.65;1.40;;;8.80;99.90;;;;;;4966713;28;20050;-76
2021/10/13 05:37:44;;;;;;;8.52;1.73;;;8.80;99.90;;;;;;4993087;28;20042;-79
2021/10/13 05:40:11;;;;;;;15.20;2.17;;;8.80;99.90;;;;;;5008822;28;20030;-76
2021/10/13 05:42:37;;;;;;;13.52;1.77;;;8.80;99.90;;;;;;4993513;28;20430;-78
2021/10/13 05:45:03;;;;;;;7.45;1.65;;;8.80;99.90;;;;;;4971140;28;20061;-75
2021/10/13 05:47:29;;;;;;;9.80;1.38;;;8.70;99.90;;;;;;4988588;28;20490;-78
2021/10/13 05:49:54;;;;;;;8.52;1.20;;;8.70;99.90;;;;;;4984378;28;20152;-79
2021/10/13 05:52:20;;;;;;;11.68;1.42;;;8.60;99.90;;;;;;4990364;28;20062;-79
2021/10/13 05:54:46;;;;;;;13.38;1.45;;;8.60;99.90;;;;;;4988881;28;20034;-77
2021/10/13 05:57:12;;;;;;;14.20;1.75;;;8.60;99.90;;;;;;4990087;28;20983;-77
2021/10/13 05:59:38;;;;;;;11.93;1.38;;;8.50;99.90;;;;;;4971645;28;20117;-78
2021/10/13 06:02:04;;;;;;;12.05;1.50;;;8.50;99.90;;;;;;4990513;28;20053;-77
2021/10/13 06:04:30;;;;;;;13.93;1.50;;;8.50;99.90;;;;;;5007364;28;20041;-76
2021/10/13 06:06:56;;;;;;;10.63;1.50;;;8.50;99.90;;;;;;4990468;28;20149;-75
2021/10/13 06:09:21;;;;;;;9.82;1.52;;;8.60;99.90;;;;;;4989493;28;20465;-74
2021/10/13 06:11:47;;;;;;;11.93;1.73;;;8.60;99.90;;;;;;4990592;28;20073;-76
2021/10/13 06:14:12;;;;;;;15.77;1.50;;;8.70;99.90;;;;;;4992031;28;20927;-75
2021/10/13 06:16:38;;;;;;;8.95;1.38;;;8.70;99.90;;;;;;4975490;28;20056;-77
2021/10/13 06:19:04;;;;;;;6.15;1.83;;;8.70;99.90;;;;;;4988631;28;20421;-78
2021/10/13 06:21:30;;;;;;;8.95;1.60;;;8.70;99.90;;;;;;4990140;28;20539;-76
2021/10/13 06:23:55;;;;;;;11.77;1.30;;;8.70;99.90;;;;;;4972819;28;21074;-79
2021/10/13 06:26:21;;;;;;;8.15;1.50;;;8.60;99.90;;;;;;4991221;28;20120;-79
2021/10/13 06:28:48;;;;;;;8.65;1.42;;;8.80;99.90;;;;;;4991056;28;20110;-76
2021/10/13 06:31:13;;;;;;;13.50;1.60;;;8.80;99.90;;;;;;4989719;28;20124;-79
2021/10/13 06:33:39;;;;;;;9.85;1.50;;;8.80;99.90;;;;;;5006141;28;20132;-81
2021/10/13 06:36:05;;;;;;;9.77;1.77;;;8.90;99.90;;;;;;5009506;28;20081;-77
2021/10/13 06:38:31;;;;;;;9.48;1.50;;;8.80;99.90;;;;;;4988886;28;20117;-76
2021/10/13 06:40:58;;;;;;;7.68;1.20;;;8.90;99.90;;;;;;4987461;28;20129;-81
2021/10/13 06:43:25;;;;;;;8.77;1.38;;;9.10;99.90;;;;;;4991013;28;20120;-80
2021/10/13 06:45:50;;;;;;;10.43;1.40;;;9.20;99.90;;;;;;4987628;28;20489;-79
2021/10/13 06:48:17;;;;;;;8.63;1.50;;;9.20;99.90;;;;;;4984561;28;20084;-79
2021/10/13 06:50:44;;;;;;;10.38;1.63;;;9.20;99.90;;;;;;4972733;28;20053;-80
2021/10/13 06:53:09;;;;;;;10.43;1.40;;;9.20;99.90;;;;;;4990713;28;20049;-80
2021/10/13 06:55:35;;;;;;;7.32;1.25;;;9.30;99.90;;;;;;4979794;28;20411;-77
2021/10/13 06:58:00;;;;;;;9.27;1.38;;;9.30;99.90;;;;;;5007788;28;20041;-79
2021/10/13 07:00:26;;;;;;;4.82;1.10;;;9.30;99.90;;;;;;4991116;28;20057;-83
2021/10/13 07:02:52;;;;;;;8.52;1.30;;;9.30;99.90;;;;;;4977697;28;20041;-80
2021/10/13 07:05:18;;;;;;;11.25;1.45;;;9.30;99.90;;;;;;4975643;28;20054;-76
2021/10/13 07:07:48;;;;;;;12.00;1.48;;;9.30;99.90;;;;;;4985993;28;20465;-77
2021/10/13 07:10:15;;;;;;;6.32;1.48;;;9.40;99.90;;;;;;4979111;28;20046;-81
2021/10/13 07:12:41;;;;;;;2.80;1.10;;;9.30;99.90;;;;;;4988838;28;20053;-82
2021/10/13 07:15:08;;;;;;;10.73;1.17;;;9.40;99.90;;;;;;4990401;28;20049;-83
2021/10/13 07:17:34;;;;;;;9.35;1.30;;;9.40;99.90;;;;;;4975940;28;20103;-80
2021/10/13 07:20:02;;;;;;;11.00;1.88;;;9.40;99.90;;;;;;4989641;28;20045;-83
2021/10/13 07:22:28;;;;;;;7.75;1.35;;;9.40;99.90;;;;;;4993059;28;20080;-80
2021/10/13 07:24:56;;;;;;;7.18;1.60;;;9.40;99.90;;;;;;4972219;28;20136;-84
2021/10/13 07:27:22;;;;;;;5.80;1.13;;;9.40;99.90;;;;;;5011286;28;20053;-86
2021/10/13 07:29:55;;;;;;;9.80;1.42;;;9.50;99.90;;;;;;4977486;28;20400;-86
2021/10/13 07:32:21;;;;;;;16.63;1.67;;;9.70;99.90;;;;;;4984028;28;20041;-78
2021/10/13 07:34:47;;;;;;;10.40;1.70;;;9.70;99.90;;;;;;5020760;28;20041;-77
2021/10/13 07:37:13;;;;;;;8.50;1.40;;;9.80;99.90;;;;;;4993835;28;20480;-76
2021/10/13 07:39:40;;;;;;;9.48;1.20;;;9.90;99.90;;;;;;4977187;28;20136;-78
2021/10/13 07:42:05;;;;;;;6.32;1.17;;;10.00;99.90;;;;;;4993939;28;20053;-80
2021/10/13 07:44:31;;;;;;;5.30;1.02;;;10.30;99.90;;;;;;4977970;28;20552;-80
2021/10/13 07:46:57;;;;;;;5.03;1.48;;;10.40;99.90;;;;;;5011561;28;20116;-80
2021/10/13 07:49:22;;;;;;;8.40;1.40;;;10.50;99.90;;;;;;5011573;28;20026;-84
2021/10/13 07:51:48;;;;;;;10.43;1.77;;;10.70;99.90;;;;;;4994402;28;20038;-85
2021/10/13 07:54:14;;;;;;;8.32;2.22;;;10.70;99.90;;;;;;5004309;28;20111;-80
2021/10/13 07:56:39;;;;;;;9.32;2.05;;;11.00;99.90;;;;;;4999324;28;20033;-81
2021/10/13 07:59:05;;;;;;;8.68;1.30;;;11.10;99.90;;;;;;4996861;28;20453;-81
2021/10/13 08:01:31;;;;;;;4.32;1.27;;;11.10;99.90;;;;;;4977868;28;20050;-87
2021/10/13 08:03:56;;;;;;;8.70;1.70;;;11.10;99.90;;;;;;4995079;28;20037;-82
2021/10/13 08:06:22;;;;;;;6.47;1.55;;;11.20;99.90;;;;;;5008235;28;20076;-81
2021/10/13 08:08:47;;;;;;;8.00;1.80;;;11.30;99.90;;;;;;5011585;28;20063;-80
2021/10/13 08:11:13;;;;;;;8.45;1.40;;;11.40;99.90;;;;;;4977603;28;20041;-79
2021/10/13 08:13:39;;;;;;;7.82;1.40;;;11.50;99.90;;;;;;4967089;28;20155;-81
2021/10/13 08:16:05;;;;;;;9.25;1.27;;;11.40;99.90;;;;;;5005990;28;20067;-80
2021/10/13 08:18:31;;;;;;;6.28;1.48;;;11.50;99.90;;;;;;5013664;28;20049;-80
2021/10/13 08:20:56;;;;;;;7.90;1.17;;;11.40;99.90;;;;;;4992255;28;20184;-85
2021/10/13 08:23:23;;;;;;;4.40;0.95;;;11.30;99.90;;;;;;4992966;28;20053;-82
2021/10/13 08:25:49;;;;;;;11.02;1.17;;;11.30;99.90;;;;;;4988658;28;20081;-84
2021/10/13 08:28:15;;;;;;;10.00;0.90;;;11.30;99.90;;;;;;4988107;28;20521;-82
2021/10/13 08:30:41;;;;;;;7.97;0.90;;;11.30;99.90;;;;;;4993151;28;20033;-84
2021/10/13 08:33:06;;;;;;;6.03;1.30;;;11.30;99.90;;;;;;4976539;28;20086;-85
2021/10/13 08:35:32;;;;;;;7.57;1.13;;;11.30;99.90;;;;;;4995819;28;20056;-82
2021/10/13 08:37:58;;;;;;;6.35;1.27;;;11.60;99.90;;;;;;5004900;28;20045;-82
2021/10/13 08:40:24;;;;;;;4.55;0.95;;;11.40;99.90;;;;;;4991527;28;20047;-82
2021/10/13 08:42:59;;;;;;;4.20;1.27;;;11.40;99.90;;;;;;4978250;28;20042;-81
2021/10/13 08:45:25;;;;;;;;;;;11.60;99.90;;;;;;5005908;28;20038;-84
2021/10/13 08:47:51;;;;;;;5.75;0.90;;;11.70;99.90;;;;;;5012648;28;20313;-83
2021/10/13 08:50:17;;;;;;;3.88;0.98;;;11.90;99.90;;;;;;4996056;28;20096;-81
2021/10/13 08:52:42;;;;;;;5.60;1.00;;;12.00;99.90;;;;;;4998199;28;20037;-84
2021/10/13 08:55:09;;;;;;;9.77;1.80;;;12.10;99.90;;;;;;4981498;28;20132;-81
2021/10/13 08:57:35;;;;;;;8.05;1.38;;;12.20;99.90;;;;;;5020638;28;20045;-79
2021/10/13 09:00:00;;;;;;;6.65;1.38;;;12.20;99.90;;;;;;5016104;28;20046;-84
2021/10/13 09:02:47;;;;;;;5.90;1.40;;;12.40;99.90;;;;;;4961006;28;20445;-82
2021/10/13 09:05:17;;;;;;;6.35;0.75;;;12.60;99.90;;;;;;4959885;28;20078;-82
2021/10/13 09:08:01;;;;;;;3.30;0.82;;;12.70;99.90;;;;;;4981778;28;20033;-80
2021/10/13 09:10:32;;;;;;;4.10;0.63;;;12.80;99.90;;;;;;5000978;28;20053;-80
2021/10/13 09:12:59;;;;;;;4.45;1.10;;;12.90;99.90;;;;;;4982252;28;20050;-79
2021/10/13 09:15:27;;;;;;;9.05;1.05;;;13.10;99.90;;;;;;4996626;28;20468;-79
2021/10/13 09:17:54;;;;;;;3.80;0.80;;;13.10;99.90;;;;;;4996165;28;20523;-82
2021/10/13 09:20:25;;;;;;;6.22;0.82;;;13.10;99.90;;;;;;5010135;28;20460;-79
2021/10/13 09:23:05;;;;;;;4.38;0.85;;;13.10;99.90;;;;;;4976527;28;20038;-77
2021/10/13 09:25:32;;;;;;;6.80;0.90;;;13.10;99.90;;;;;;4962061;28;20091;-79
2021/10/13 09:27:58;;;;;;;4.28;0.90;;;13.10;99.90;;;;;;4977141;28;20376;-84
2021/10/13 09:30:27;;;;;;;7.43;1.27;;;13.10;99.90;;;;;;4999550;28;20072;-80
2021/10/13 09:32:52;;;;;;;8.25;1.38;;;13.10;99.90;;;;;;4988151;28;20046;-80
2021/10/13 09:35:28;;;;;;;6.03;1.40;;;13.10;99.90;;;;;;4985176;28;20068;-82
2021/10/13 09:37:54;;;;;;;1.40;0.47;;;13.10;99.90;;;;;;4995697;28;20049;-83
2021/10/13 09:40:28;;;;;;;1.63;0.30;;;13.10;99.90;;;;;;5000027;28;20093;-80
2021/10/13 09:42:58;;;;;;;0.82;0.30;;;13.10;99.90;;;;;;5000624;28;20119;-78
2021/10/13 09:45:26;;;;;;;4.45;0.50;;;13.10;99.90;;;;;;4995395;28;20108;-78
2021/10/13 09:47:59;;;;;;;7.93;1.02;;;13.10;99.90;;;;;;4995849;28;20085;-81
2021/10/13 09:50:45;;;;;;;5.50;0.90;;;13.20;99.90;;;;;;4994681;28;20073;-79
2021/10/13 09:53:23;;;;;;;5.63;0.65;;;13.30;99.90;;;;;;4990555;28;20108;-81
2021/10/13 09:55:49;;;;;;;3.65;0.55;;;13.50;99.90;;;;;;4979624;28;20498;-80
2021/10/13 09:58:24;;;;;;;2.10;0.57;;;13.50;99.90;;;;;;4983943;28;20068;-80
2021/10/13 10:01:13;;;;;;;5.35;1.05;;;13.40;99.90;;;;;;5007083;28;20049;-81
2021/10/13 10:03:42;;;;;;;4.15;0.90;;;13.30;99.90;;;;;;4994808;28;20335;-83
2021/10/13 10:06:09;;;;;;;2.70;0.70;;;13.40;99.90;;;;;;4995109;28;20082;-84
2021/10/13 10:08:50;;;;;;;5.57;1.20;;;13.50;99.90;;;;;;4994307;28;20109;-81
2021/10/13 10:11:30;;;;;;;7.53;1.73;;;13.60;99.90;;;;;;4998530;28;20037;-85
2021/10/13 10:13:56;;;;;;;4.95;1.08;;;13.50;99.90;;;;;;4997091;28;20687;-81
2021/10/13 10:16:30;;;;;;;7.05;1.60;;;13.40;99.90;;;;;;4987352;28;20083;-80
2021/10/13 10:19:25;;;;;;;5.55;1.10;;;13.60;99.90;;;;;;5002317;28;20054;-82
2021/10/13 10:22:15;;;;;;;3.88;0.75;;;13.70;99.90;;;;;;5014599;28;20092;-83
2021/10/13 10:24:50;;;;;;;4.03;1.02;;;13.90;99.90;;;;;;4994645;28;20093;-83
2021/10/13 10:27:35;;;;;;;5.60;0.82;;;14.20;99.90;;;;;;4995322;28;20474;-83
2021/10/13 10:30:10;;;;;;;5.32;0.85;;;14.10;99.90;;;;;;4994147;28;20029;-80
2021/10/13 10:32:37;;;;;;;6.57;1.17;;;14.00;99.90;;;;;;4993371;28;20133;-86
2021/10/13 10:35:03;;;;;;;3.20;0.93;;;13.50;99.90;;;;;;4993815;28;20052;-84
2021/10/13 10:37:44;;;;;;;5.35;0.60;;;13.40;99.90;;;;;;4994980;28;20361;-84
2021/10/13 10:40:22;;;;;;;2.50;0.73;;;13.30;99.90;;;;;;5011054;28;20045;-87
2021/10/13 10:43:18;;;;;;;6.47;1.20;;;13.30;99.90;;;;;;4994429;28;20054;-79
2021/10/13 10:45:55;;;;;;;1.13;0.57;;;13.30;99.90;;;;;;4995962;28;20125;-77
2021/10/13 10:48:21;;;;;;;3.17;0.52;;;13.30;99.90;;;;;;4988260;28;20402;-85
2021/10/13 10:50:53;;;;;;;4.53;0.60;;;13.30;99.90;;;;;;4991915;28;20045;-83
2021/10/13 10:53:30;;;;;;;1.80;0.50;;;13.30;99.90;;;;;;4983215;28;20069;-88
2021/10/13 10:56:14;;;;;;;3.55;0.70;;;13.30;99.90;;;;;;4974082;28;20085;-83
2021/10/13 10:59:04;;;;;;;2.38;0.57;;;13.30;99.90;;;;;;5006081;28;20346;-82
2021/10/13 11:01:30;;;;;;;3.53;0.93;;;13.40;99.90;;;;;;5013375;28;20079;-82
2021/10/13 11:03:56;;;;;;;2.33;0.70;;;13.30;99.90;;;;;;4995446;28;20060;-80
2021/10/13 11:06:23;;;;;;;3.22;0.77;;;13.40;99.90;;;;;;4993183;28;20099;-78
2021/10/13 11:08:54;;;;;;;1.63;0.68;;;13.70;99.90;;;;;;4979438;28;20104;-83
2021/10/13 11:11:21;;;;;;;9.68;0.98;;;13.80;99.90;;;;;;4994606;28;20049;-84
2021/10/13 11:14:00;;;;;;;3.65;0.90;;;14.10;99.90;;;;;;4976617;28;20144;-83
2021/10/13 11:16:26;;;;;;;4.00;1.05;;;14.50;99.90;;;;;;4975784;28;20112;-83
2021/10/13 11:18:52;;;;;;;4.38;0.70;;;14.70;99.90;;;;;;4987877;28;20090;-83
2021/10/13 11:21:18;;;;;;;9.35;0.90;;;14.80;99.90;;;;;;4974772;28;20086;-86
2021/10/13 11:23:45;;;;;;;5.05;0.70;;;14.80;99.90;;;;;;4996329;28;20513;-81
2021/10/13 11:26:11;;;;;;;6.45;1.20;;;14.70;99.90;;;;;;4978270;28;20058;-81
2021/10/13 11:28:38;;;;;;;5.35;1.10;;;14.40;99.90;;;;;;4994442;28;20457;-83
2021/10/13 11:31:06;;;;;;;10.90;1.15;;;13.90;99.90;;;;;;5018004;28;20069;-80
2021/10/13 11:33:32;;;;;;;4.05;0.90;;;13.50;99.90;;;;;;4959543;28;20070;-80
2021/10/13 11:36:03;;;;;;;3.72;0.93;;;13.50;99.90;;;;;;4958884;28;20038;-82
2021/10/13 11:38:34;;;;;;;9.40;1.60;;;13.30;99.90;;;;;;4960079;28;20043;-81
2021/10/13 11:41:11;;;;;;;6.15;1.05;;;13.30;99.90;;;;;;4992771;28;20038;-85
2021/10/13 11:43:37;;;;;;;5.35;0.90;;;13.30;99.90;;;;;;4964010;28;20046;-81
2021/10/13 11:46:03;;;;;;;8.75;1.05;;;13.40;99.90;;;;;;4977105;28;20057;-86
2021/10/13 11:48:32;;;;;;;5.88;1.10;;;13.40;99.90;;;;;;4959659;28;20105;-85
2021/10/13 11:51:00;;;;;;;5.07;1.00;;;13.60;99.90;;;;;;4974132;28;20042;-83
2021/10/13 11:53:26;;;;;;;7.00;1.50;;;13.80;99.90;;;;;;5011095;28;20099;-82
2021/10/13 11:55:52;;;;;;;7.53;1.38;;;14.20;99.90;;;;;;4977394;28;20129;-86
2021/10/13 11:58:29;;;;;;;7.05;1.30;;;14.20;99.90;;;;;;4982441;28;20464;-79
2021/10/13 12:00:56;;;;;;;9.70;1.13;;;14.30;99.90;;;;;;5013716;28;20110;-84
2021/10/13 12:03:36;;;;;;;10.15;1.30;;;14.30;99.90;;;;;;5006066;28;20038;-81
2021/10/13 12:06:03;;;;;;;6.30;1.30;;;14.40;99.90;;;;;;4981925;28;20137;-81
2021/10/13 12:08:40;;;;;;;7.72;1.35;;;14.40;99.90;;;;;;4993737;28;20042;-82
2021/10/13 12:11:08;;;;;;;7.38;1.42;;;14.30;99.90;;;;;;5014626;28;20462;-88
2021/10/13 12:13:37;;;;;;;13.18;1.52;;;14.30;99.90;;;;;;4993872;28;20486;-83
2021/10/13 12:16:11;;;;;;;4.72;1.50;;;14.30;99.90;;;;;;4990685;28;20038;-84
2021/10/13 12:18:42;;;;;;;8.18;1.90;;;14.20;99.90;;;;;;4984817;28;20061;-84
2021/10/13 12:21:15;;;;;;;9.10;1.88;;;14.30;99.90;;;;;;4997268;28;20104;-82
2021/10/13 12:23:44;;;;;;;9.10;1.45;;;14.20;99.90;;;;;;5013037;28;20442;-79
2021/10/13 12:26:16;;;;;;;5.70;1.35;;;14.20;99.90;;;;;;5001517;28;20093;-78
2021/10/13 12:28:42;;;;;;;5.38;1.15;;;14.30;99.90;;;;;;5035048;28;20037;-84
2021/10/13 12:31:11;;;;;;;7.80;1.30;;;14.30;99.90;;;;;;5016523;28;20473;-85
2021/10/13 12:33:50;;;;;;;8.02;1.52;;;14.30;99.90;;;;;;4982718;28;20054;-82
2021/10/13 12:36:17;;;;;;;6.40;1.23;;;14.20;99.90;;;;;;4994839;28;20054;-81
2021/10/13 12:38:47;;;;;;;7.43;1.45;;;14.30;99.90;;;;;;4995847;28;20057;-80
2021/10/13 12:41:13;;;;;;;9.27;1.67;;;14.30;99.90;;;;;;4996966;28;20129;-81
2021/10/13 12:43:44;;;;;;;10.00;1.58;;;14.30;99.90;;;;;;4997172;28;20528;-87
2021/10/13 12:46:32;;;;;;;15.23;2.00;;;14.30;99.90;;;;;;4993243;28;20053;-87
2021/10/13 12:49:13;;;;;;;14.60;1.85;;;14.30;99.90;;;;;;4964854;28;20512;-79
2021/10/13 12:51:58;;;;;;;7.35;1.55;;;14.30;99.90;;;;;;5016015;28;20044;-84
2021/10/13 12:54:25;;;;;;;8.75;1.80;;;14.30;99.90;;;;;;5000231;28;20038;-85
2021/10/13 12:56:51;;;;;;;7.53;1.52;;;14.20;99.90;;;;;;4998677;28;20041;-82
2021/10/13 12:59:17;;;;;;;12.05;2.13;;;14.20;99.90;;;;;;5014717;28;20041;-83